createdAt,value
2023-08-18T00:00:33.054Z,20.51
2023-08-18T00:03:06.064Z,20.48
2023-08-18T00:05:38.856Z,20.47
2023-08-18T00:08:11.359Z,20.39
2023-08-18T00:10:44.028Z,20.35
2023-08-18T00:13:16.465Z,20.37
2023-08-18T00:15:48.914Z,20.35
2023-08-18T00:18:21.450Z,20.36
2023-08-18T00:20:54.433Z,20.27
2023-08-18T00:23:27.173Z,20.19
2023-08-18T00:25:59.509Z,20.20
2023-08-18T00:28:31.983Z,20.19
2023-08-18T00:31:04.633Z,20.13
2023-08-18T00:33:37.340Z,20.18
2023-08-18T00:36:13.114Z,20.24
2023-08-18T00:38:47.038Z,20.28
2023-08-18T00:41:40.157Z,20.25
2023-08-18T00:44:12.717Z,20.26
2023-08-18T00:46:46.132Z,20.21
2023-08-18T00:49:20.306Z,20.20
2023-08-18T00:51:53.772Z,20.16
2023-08-18T00:54:26.446Z,20.14
2023-08-18T00:57:00.010Z,20.13
2023-08-18T00:59:32.774Z,20.17
2023-08-18T01:02:07.179Z,20.13
2023-08-18T01:04:41.427Z,20.13
2023-08-18T01:07:15.646Z,20.18
2023-08-18T01:09:49.035Z,20.08
2023-08-18T01:12:29.567Z,20.04
2023-08-18T01:15:10.846Z,20.04
2023-08-18T01:17:50.768Z,20.07
2023-08-18T01:20:24.881Z,19.94
2023-08-18T01:23:00.345Z,19.95
2023-08-18T01:25:33.846Z,19.97
2023-08-18T01:28:07.796Z,19.97
2023-08-18T01:30:48.646Z,19.99
2023-08-18T01:33:28.489Z,19.98
2023-08-18T01:36:06.316Z,20.00
2023-08-18T01:38:39.787Z,20.01
2023-08-18T01:41:13.994Z,20.00
2023-08-18T01:43:46.499Z,19.97
2023-08-18T01:46:19.414Z,19.95
2023-08-18T01:48:51.891Z,19.87
2023-08-18T01:51:24.335Z,19.68
2023-08-18T01:53:56.865Z,19.54
2023-08-18T01:56:29.358Z,19.51
2023-08-18T01:59:01.949Z,19.52
2023-08-18T02:01:34.517Z,19.51
2023-08-18T02:04:08.277Z,19.48
2023-08-18T02:06:40.888Z,19.51
2023-08-18T02:09:14.033Z,19.52
2023-08-18T02:11:46.685Z,19.52
2023-08-18T02:14:19.547Z,19.49
2023-08-18T02:16:52.799Z,19.43
2023-08-18T02:19:23.358Z,19.43
2023-08-18T02:21:57.309Z,19.38
2023-08-18T02:24:30.996Z,19.42
2023-08-18T02:27:03.527Z,19.46
2023-08-18T02:29:36.347Z,19.46
2023-08-18T02:32:09.189Z,19.47
2023-08-18T02:34:41.455Z,19.49
2023-08-18T02:37:13.947Z,19.53
2023-08-18T02:39:46.687Z,19.54
2023-08-18T02:42:19.949Z,19.51
2023-08-18T02:44:50.447Z,19.52
2023-08-18T02:47:23.006Z,19.46
2023-08-18T02:49:55.889Z,19.50
2023-08-18T02:52:28.823Z,19.43
2023-08-18T02:55:01.685Z,19.41
2023-08-18T02:57:33.887Z,19.41
2023-08-18T03:00:06.922Z,19.46
2023-08-18T03:02:39.403Z,19.48
2023-08-18T03:05:12.812Z,19.48
2023-08-18T03:07:45.231Z,19.57
2023-08-18T03:10:19.497Z,19.62
2023-08-18T03:12:51.849Z,19.59
2023-08-18T03:15:24.777Z,19.58
2023-08-18T03:17:57.232Z,19.57
2023-08-18T03:20:30.190Z,19.56
2023-08-18T03:23:02.446Z,19.58
2023-08-18T03:25:34.597Z,19.62
2023-08-18T03:28:11.404Z,19.61
2023-08-18T03:30:45.727Z,19.67
2023-08-18T03:33:19.059Z,19.69
2023-08-18T03:35:54.474Z,19.69
2023-08-18T03:38:27.502Z,19.68
2023-08-18T03:41:01.633Z,19.66
2023-08-18T03:43:35.154Z,19.60
2023-08-18T03:46:22.487Z,19.63
2023-08-18T03:48:57.051Z,19.68
2023-08-18T03:51:30.708Z,19.70
2023-08-18T03:54:04.675Z,19.68
2023-08-18T03:56:37.517Z,19.64
2023-08-18T03:59:10.184Z,19.65
2023-08-18T04:01:42.741Z,19.61
2023-08-18T04:04:15.094Z,19.50
2023-08-18T04:06:47.919Z,19.41
2023-08-18T04:09:20.746Z,19.33
2023-08-18T04:11:54.834Z,19.31
2023-08-18T04:14:28.467Z,19.24
2023-08-18T04:17:02.425Z,19.31
2023-08-18T04:19:33.656Z,19.37
2023-08-18T04:22:06.428Z,19.36
2023-08-18T04:24:38.929Z,19.44
2023-08-18T04:27:13.150Z,19.48
2023-08-18T04:29:45.805Z,19.54
2023-08-18T04:32:18.547Z,19.59
2023-08-18T04:34:52.359Z,19.61
2023-08-18T04:37:25.196Z,19.66
2023-08-18T04:39:59.269Z,19.69
2023-08-18T04:42:32.044Z,19.70
2023-08-18T04:45:05.709Z,19.65
2023-08-18T04:47:38.576Z,19.73
2023-08-18T04:50:12.945Z,19.85
2023-08-18T04:52:45.557Z,19.83
2023-08-18T04:55:18.170Z,19.86
2023-08-18T04:57:50.558Z,19.89
2023-08-18T05:00:23.638Z,19.86
2023-08-18T05:02:56.345Z,19.85
2023-08-18T05:05:28.906Z,19.91
2023-08-18T05:08:01.461Z,19.97
2023-08-18T05:10:34.006Z,20.00
2023-08-18T05:13:06.720Z,19.96
2023-08-18T05:15:40.679Z,20.02
2023-08-18T05:18:13.146Z,19.96
2023-08-18T05:20:45.649Z,20.03
2023-08-18T05:23:19.681Z,20.21
2023-08-18T05:25:55.757Z,20.22
2023-08-18T05:28:30.398Z,20.34
2023-08-18T05:31:03.150Z,20.52
2023-08-18T05:33:35.726Z,20.58
2023-08-18T05:36:09.689Z,20.65
2023-08-18T05:38:42.154Z,20.83
2023-08-18T05:41:17.069Z,20.91
2023-08-18T05:43:51.596Z,20.97
2023-08-18T05:46:24.112Z,21.07
2023-08-18T05:48:56.466Z,21.09
2023-08-18T05:51:28.988Z,21.11
2023-08-18T05:54:01.375Z,21.12
2023-08-18T05:56:33.717Z,21.21
2023-08-18T05:59:07.739Z,21.33
2023-08-18T06:01:40.305Z,21.57
2023-08-18T06:04:12.841Z,21.69
2023-08-18T06:06:45.336Z,21.65
2023-08-18T06:09:17.921Z,21.56
2023-08-18T06:11:51.705Z,21.50
2023-08-18T06:14:24.225Z,21.47
2023-08-18T06:16:56.565Z,21.62
2023-08-18T06:19:28.927Z,21.76
2023-08-18T06:22:01.659Z,21.87
2023-08-18T06:24:42.056Z,21.93
2023-08-18T06:27:17.746Z,22.01
2023-08-18T06:29:50.312Z,22.13
2023-08-18T06:32:22.639Z,22.14
2023-08-18T06:34:56.433Z,22.22
2023-08-18T06:37:30.115Z,22.44
2023-08-18T06:40:02.624Z,22.67
2023-08-18T06:42:34.930Z,23.05
2023-08-18T06:45:08.304Z,23.37
2023-08-18T06:47:40.750Z,23.59
2023-08-18T06:50:14.145Z,23.77
2023-08-18T06:52:46.766Z,23.99
2023-08-18T06:55:20.454Z,24.23
2023-08-18T06:57:57.577Z,24.43
2023-08-18T07:00:29.974Z,24.48
2023-08-18T07:03:02.337Z,24.56
2023-08-18T07:05:35.012Z,24.57
2023-08-18T07:08:08.825Z,24.53
2023-08-18T07:10:41.845Z,24.38
2023-08-18T07:13:14.195Z,24.27
2023-08-18T07:15:46.956Z,24.04
2023-08-18T07:18:21.389Z,24.15
2023-08-18T07:20:54.466Z,24.36
2023-08-18T07:23:27.561Z,24.57
2023-08-18T07:26:00.136Z,24.76
2023-08-18T07:28:33.068Z,24.93
2023-08-18T07:31:09.286Z,24.96
2023-08-18T07:33:42.216Z,25.21
2023-08-18T07:36:14.957Z,25.34
2023-08-18T07:38:48.509Z,25.38
2023-08-18T07:41:21.147Z,25.46
2023-08-18T07:43:55.267Z,25.52
2023-08-18T07:46:28.103Z,25.55
2023-08-18T07:49:01.624Z,25.59
2023-08-18T07:51:34.487Z,25.75
2023-08-18T07:54:05.018Z,26.03
2023-08-18T07:56:37.683Z,26.29
2023-08-18T07:59:11.043Z,26.45
2023-08-18T08:01:43.608Z,26.64
2023-08-18T08:04:16.908Z,26.89
2023-08-18T08:06:51.399Z,26.77
2023-08-18T08:09:23.987Z,26.88
2023-08-18T08:11:54.733Z,27.00
2023-08-18T08:14:28.151Z,27.14
2023-08-18T08:17:01.418Z,27.31
2023-08-18T08:19:33.630Z,27.35
2023-08-18T08:22:11.478Z,27.42
2023-08-18T08:24:43.966Z,27.08
2023-08-18T08:27:17.375Z,27.11
2023-08-18T08:29:51.890Z,27.33
2023-08-18T08:32:24.468Z,27.39
2023-08-18T08:34:56.919Z,27.60
2023-08-18T08:37:29.403Z,27.74
2023-08-18T08:40:02.602Z,27.84
2023-08-18T08:42:35.717Z,27.89
2023-08-18T08:45:12.893Z,28.06
2023-08-18T08:47:45.812Z,28.26
2023-08-18T08:50:18.745Z,28.51
2023-08-18T08:52:55.015Z,28.41
2023-08-18T08:55:35.170Z,28.43
2023-08-18T08:58:13.972Z,28.62
2023-08-18T09:00:48.201Z,28.73
2023-08-18T09:03:22.476Z,28.85
2023-08-18T09:05:56.663Z,28.76
2023-08-18T09:08:29.330Z,28.54
2023-08-18T09:11:01.370Z,28.64
2023-08-18T09:13:35.733Z,28.50
2023-08-18T09:16:09.255Z,28.57
2023-08-18T09:18:44.435Z,28.65
2023-08-18T09:21:17.957Z,28.66
2023-08-18T09:23:56.755Z,28.69
2023-08-18T09:26:30.933Z,28.83
2023-08-18T09:29:04.157Z,29.05
2023-08-18T09:31:36.630Z,29.31
2023-08-18T09:34:07.895Z,29.50
2023-08-18T09:36:40.507Z,29.58
2023-08-18T09:39:11.758Z,29.56
2023-08-18T09:41:44.529Z,29.44
2023-08-18T09:44:17.140Z,29.35
2023-08-18T09:46:48.960Z,29.18
2023-08-18T09:49:27.758Z,29.05
2023-08-18T09:52:07.532Z,28.87
2023-08-18T09:54:52.688Z,28.75
2023-08-18T09:57:33.021Z,28.92
2023-08-18T10:00:07.572Z,29.17
2023-08-18T10:02:46.061Z,29.49
2023-08-18T10:05:19.998Z,29.69
2023-08-18T10:07:54.087Z,29.72
2023-08-18T10:10:27.772Z,29.65
2023-08-18T10:13:00.932Z,29.63
2023-08-18T10:15:34.290Z,29.54
2023-08-18T10:18:10.837Z,29.68
2023-08-18T10:20:52.179Z,29.81
2023-08-18T10:23:28.473Z,29.68
2023-08-18T10:26:01.717Z,29.56
2023-08-18T10:28:35.635Z,29.48
2023-08-18T10:31:12.850Z,29.62
2023-08-18T10:33:47.080Z,29.55
2023-08-18T10:36:28.489Z,29.38
2023-08-18T10:39:20.129Z,29.45
2023-08-18T10:42:08.984Z,29.59
2023-08-18T10:44:41.640Z,29.61
2023-08-18T10:47:25.338Z,29.23
2023-08-18T10:49:57.744Z,29.10
2023-08-18T10:52:32.385Z,29.27
2023-08-18T10:55:05.236Z,29.57
2023-08-18T10:57:38.955Z,29.86
2023-08-18T11:00:13.982Z,29.70
2023-08-18T11:02:47.116Z,29.62
2023-08-18T11:05:21.610Z,29.84
2023-08-18T11:07:54.449Z,30.03
2023-08-18T11:10:28.289Z,30.12
2023-08-18T11:13:01.399Z,30.18
2023-08-18T11:15:34.253Z,30.02
2023-08-18T11:18:08.136Z,30.02
2023-08-18T11:20:42.258Z,30.13
2023-08-18T11:23:14.650Z,30.19
2023-08-18T11:25:45.137Z,30.35
2023-08-18T11:28:18.929Z,30.54
2023-08-18T11:30:51.278Z,30.48
2023-08-18T11:33:27.184Z,30.06
2023-08-18T11:36:00.305Z,30.11
2023-08-18T11:38:34.703Z,30.06
2023-08-18T11:41:07.474Z,30.01
2023-08-18T11:43:40.772Z,29.96
2023-08-18T11:46:14.285Z,29.84
2023-08-18T11:48:47.702Z,29.77
2023-08-18T11:51:20.578Z,29.92
2023-08-18T11:53:54.508Z,29.99
2023-08-18T11:56:27.802Z,29.99
2023-08-18T11:59:00.457Z,29.92
2023-08-18T12:01:38.437Z,30.06
2023-08-18T12:04:14.849Z,29.99
2023-08-18T12:06:47.247Z,30.01
2023-08-18T12:09:20.316Z,30.27
2023-08-18T12:11:53.305Z,30.51
2023-08-18T12:14:28.559Z,30.33
2023-08-18T12:17:01.120Z,30.13
2023-08-18T12:19:36.508Z,30.25
2023-08-18T12:22:09.416Z,30.49
2023-08-18T12:24:42.185Z,30.61
2023-08-18T12:27:14.608Z,30.69
2023-08-18T12:29:47.266Z,30.73
2023-08-18T12:32:19.753Z,30.88
2023-08-18T12:34:51.877Z,31.08
2023-08-18T12:37:24.577Z,31.09
2023-08-18T12:39:57.524Z,31.27
2023-08-18T12:42:31.818Z,31.05
2023-08-18T12:45:04.478Z,30.97
2023-08-18T12:47:36.882Z,31.08
2023-08-18T12:50:08.346Z,31.11
2023-08-18T12:52:40.928Z,31.12
2023-08-18T12:55:12.547Z,31.13
2023-08-18T12:57:46.668Z,31.03
2023-08-18T13:00:20.177Z,30.99
2023-08-18T13:02:54.312Z,31.02
2023-08-18T13:05:26.760Z,31.18
2023-08-18T13:07:58.152Z,31.20
2023-08-18T13:10:35.698Z,30.94
2023-08-18T13:13:08.397Z,30.91
2023-08-18T13:15:41.522Z,30.90
2023-08-18T13:18:14.252Z,30.82
2023-08-18T13:20:46.919Z,30.80
2023-08-18T13:23:19.693Z,30.92
2023-08-18T13:25:54.526Z,30.79
2023-08-18T13:28:27.109Z,30.38
2023-08-18T13:30:59.842Z,30.27
2023-08-18T13:33:32.330Z,30.18
2023-08-18T13:36:03.096Z,30.19
2023-08-18T13:38:35.674Z,30.08
2023-08-18T13:41:06.186Z,29.98
2023-08-18T13:43:38.457Z,30.09
2023-08-18T13:46:10.947Z,30.34
2023-08-18T13:48:41.448Z,30.31
2023-08-18T13:51:13.717Z,30.42
2023-08-18T13:53:47.550Z,30.68
2023-08-18T13:56:20.537Z,30.88
2023-08-18T13:58:52.916Z,30.65
2023-08-18T14:01:25.455Z,30.60
2023-08-18T14:03:57.853Z,30.69
2023-08-18T14:06:30.282Z,30.67
2023-08-18T14:09:04.182Z,30.62
2023-08-18T14:11:37.029Z,30.45
2023-08-18T14:14:09.852Z,30.28
2023-08-18T14:16:42.524Z,30.09
2023-08-18T14:19:18.024Z,29.96
2023-08-18T14:21:50.782Z,30.06
2023-08-18T14:24:23.616Z,29.98
2023-08-18T14:26:56.120Z,29.80
2023-08-18T14:29:26.690Z,29.58
2023-08-18T14:31:59.111Z,29.38
2023-08-18T14:34:29.628Z,29.40
2023-08-18T14:37:03.889Z,29.37
2023-08-18T14:39:36.201Z,29.43
2023-08-18T14:42:09.184Z,29.35
2023-08-18T14:44:41.583Z,29.13
2023-08-18T14:47:14.625Z,28.96
2023-08-18T14:49:47.960Z,28.88
2023-08-18T14:52:20.535Z,28.81
2023-08-18T14:54:53.009Z,28.71
2023-08-18T14:57:25.757Z,28.66
2023-08-18T14:59:58.179Z,28.55
2023-08-18T15:02:30.920Z,28.53
2023-08-18T15:05:03.680Z,28.40
2023-08-18T15:07:36.321Z,28.37
2023-08-18T15:10:08.017Z,28.43
2023-08-18T15:12:41.338Z,28.37
2023-08-18T15:15:15.130Z,28.32
2023-08-18T15:17:50.210Z,28.17
2023-08-18T15:20:23.725Z,28.09
2023-08-18T15:22:56.487Z,28.07
2023-08-18T15:25:31.243Z,28.11
2023-08-18T15:28:05.040Z,28.14
2023-08-18T15:30:38.061Z,28.21
2023-08-18T15:33:11.279Z,28.23
2023-08-18T15:35:47.542Z,28.17
2023-08-18T15:38:20.775Z,28.10
2023-08-18T15:40:55.016Z,27.97
2023-08-18T15:43:28.184Z,27.89
2023-08-18T15:46:01.767Z,27.88
2023-08-18T15:48:34.784Z,27.93
2023-08-18T15:51:10.876Z,28.02
2023-08-18T15:53:43.735Z,28.07
2023-08-18T15:56:16.825Z,28.16
2023-08-18T15:58:50.581Z,28.00
2023-08-18T16:01:23.873Z,27.78
2023-08-18T16:03:56.537Z,27.18
2023-08-18T16:06:29.535Z,26.99
2023-08-18T16:09:07.077Z,26.97
2023-08-18T16:11:39.817Z,26.99
2023-08-18T16:14:39.195Z,27.12
2023-08-18T16:17:06.314Z,27.16
2023-08-18T16:19:40.591Z,27.17
2023-08-18T16:22:13.781Z,27.17
2023-08-18T16:24:49.698Z,27.05
2023-08-18T16:27:22.437Z,27.00
2023-08-18T16:29:58.619Z,27.01
2023-08-18T16:32:33.190Z,27.05
2023-08-18T16:35:06.419Z,27.05
2023-08-18T16:37:40.457Z,26.90
2023-08-18T16:40:14.015Z,26.91
2023-08-18T16:42:47.103Z,26.89
2023-08-18T16:45:20.823Z,26.90
2023-08-18T16:47:53.768Z,26.95
2023-08-18T16:50:26.787Z,26.76
2023-08-18T16:52:59.672Z,26.69
2023-08-18T16:55:32.498Z,26.77
2023-08-18T16:58:03.300Z,26.67
2023-08-18T17:00:40.731Z,26.60
2023-08-18T17:03:16.707Z,26.62
2023-08-18T17:05:51.338Z,26.59
2023-08-18T17:08:25.743Z,26.54
2023-08-18T17:11:00.866Z,26.37
2023-08-18T17:13:33.619Z,26.26
2023-08-18T17:16:04.891Z,26.15
2023-08-18T17:18:38.658Z,26.04
2023-08-18T17:21:11.540Z,25.98
2023-08-18T17:23:45.580Z,25.98
2023-08-18T17:26:26.112Z,25.89
2023-08-18T17:29:00.656Z,25.86
2023-08-18T17:31:37.343Z,25.81
2023-08-18T17:34:14.424Z,25.80
2023-08-18T17:36:55.667Z,25.80
2023-08-18T17:39:40.749Z,25.69
2023-08-18T17:42:23.562Z,25.63
2023-08-18T17:44:59.097Z,25.55
2023-08-18T17:47:35.770Z,25.38
2023-08-18T17:50:24.099Z,25.33
2023-08-18T17:53:00.426Z,25.24
2023-08-18T17:55:46.399Z,25.16
2023-08-18T17:58:27.096Z,25.07
2023-08-18T18:01:07.177Z,24.95
2023-08-18T18:03:50.154Z,24.82
2023-08-18T18:06:27.329Z,24.74
2023-08-18T18:09:07.950Z,24.67
2023-08-18T18:11:46.655Z,24.63
2023-08-18T18:14:25.099Z,24.62
2023-08-18T18:17:03.423Z,24.62
2023-08-18T18:19:45.027Z,24.61
2023-08-18T18:22:23.616Z,24.59
2023-08-18T18:25:04.176Z,24.55
2023-08-18T18:27:44.221Z,24.47
2023-08-18T18:30:27.666Z,24.41
2023-08-18T18:33:02.955Z,24.40
2023-08-18T18:35:39.623Z,24.40
2023-08-18T18:38:16.191Z,24.34
2023-08-18T18:40:51.507Z,24.19
2023-08-18T18:43:27.347Z,24.04
2023-08-18T18:46:05.498Z,23.87
2023-08-18T18:48:41.983Z,23.68
2023-08-18T18:51:18.834Z,23.38
2023-08-18T18:53:56.779Z,23.20
2023-08-18T18:56:35.550Z,22.97
2023-08-18T18:59:12.859Z,22.82
2023-08-18T19:01:49.298Z,22.78
2023-08-18T19:04:28.099Z,22.76
2023-08-18T19:07:05.380Z,22.77
2023-08-18T19:09:43.261Z,22.77
2023-08-18T19:12:20.307Z,22.72
2023-08-18T19:15:03.045Z,22.60
2023-08-18T19:17:40.214Z,22.52
2023-08-18T19:20:31.606Z,22.43
2023-08-18T19:23:08.386Z,22.32
2023-08-18T19:25:46.605Z,22.29
2023-08-18T19:28:23.178Z,22.31
2023-08-18T19:31:03.426Z,22.26
2023-08-18T19:33:40.655Z,22.24
2023-08-18T19:36:19.190Z,22.24
2023-08-18T19:38:57.258Z,22.29
2023-08-18T19:41:35.108Z,22.42
2023-08-18T19:44:24.578Z,22.43
2023-08-18T19:47:00.183Z,22.43
2023-08-18T19:49:32.777Z,22.44
2023-08-18T19:52:05.858Z,22.44
2023-08-18T19:54:36.561Z,22.48
2023-08-18T19:57:09.708Z,22.42
2023-08-18T19:59:40.735Z,22.36
2023-08-18T20:02:13.949Z,22.16
2023-08-18T20:04:47.459Z,22.11
2023-08-18T20:07:20.819Z,22.13
2023-08-18T20:09:54.346Z,22.18
2023-08-18T20:12:31.431Z,22.16
2023-08-18T20:15:06.456Z,22.14
2023-08-18T20:17:40.482Z,22.23
2023-08-18T20:20:14.466Z,22.23
2023-08-18T20:22:47.625Z,22.17
2023-08-18T20:25:23.158Z,22.08
2023-08-18T20:27:58.338Z,22.03
2023-08-18T20:30:31.747Z,22.00
2023-08-18T20:33:05.022Z,21.98
2023-08-18T20:35:37.820Z,21.94
2023-08-18T20:38:08.892Z,21.95
2023-08-18T20:40:41.700Z,21.85
2023-08-18T20:43:14.791Z,21.85
2023-08-18T20:45:45.704Z,21.75
2023-08-18T20:48:18.534Z,21.76
2023-08-18T20:50:59.457Z,21.72
2023-08-18T20:53:33.018Z,21.70
2023-08-18T20:56:08.275Z,21.65
2023-08-18T20:58:46.742Z,21.59
2023-08-18T21:01:21.608Z,21.55
2023-08-18T21:03:54.723Z,21.56
2023-08-18T21:06:28.259Z,21.59
2023-08-18T21:09:02.938Z,21.54
2023-08-18T21:11:35.935Z,21.56
2023-08-18T21:14:09.417Z,21.56
2023-08-18T21:16:46.312Z,21.54
2023-08-18T21:19:19.142Z,21.63
2023-08-18T21:21:52.223Z,21.66
2023-08-18T21:24:25.463Z,21.65
2023-08-18T21:26:59.897Z,21.65
2023-08-18T21:29:32.738Z,21.67
2023-08-18T21:32:05.706Z,21.68
2023-08-18T21:34:38.464Z,21.64
2023-08-18T21:37:13.462Z,21.59
2023-08-18T21:39:47.661Z,21.55
2023-08-18T21:42:20.699Z,21.69
2023-08-18T21:44:51.578Z,21.90
2023-08-18T21:47:24.552Z,21.90
2023-08-18T21:49:55.378Z,21.96
2023-08-18T21:52:28.257Z,21.95
2023-08-18T21:54:59.421Z,21.85
2023-08-18T21:57:32.137Z,21.68
2023-08-18T22:00:05.664Z,21.63
2023-08-18T22:02:47.773Z,21.56
2023-08-18T22:05:20.501Z,21.58
2023-08-18T22:07:53.263Z,21.69
2023-08-18T22:10:26.293Z,21.68
2023-08-18T22:12:59.460Z,21.67
2023-08-18T22:15:33.345Z,21.69
2023-08-18T22:18:06.899Z,21.68
2023-08-18T22:20:39.740Z,21.62
2023-08-18T22:23:12.601Z,21.55
2023-08-18T22:25:45.820Z,21.40
2023-08-18T22:28:16.458Z,21.30
2023-08-18T22:30:49.457Z,21.18
2023-08-18T22:33:21.524Z,21.09
2023-08-18T22:36:01.471Z,20.98
2023-08-18T22:38:34.417Z,20.97
2023-08-18T22:41:07.624Z,20.91
2023-08-18T22:43:39.814Z,20.98
2023-08-18T22:46:16.022Z,20.94
2023-08-18T22:48:48.975Z,20.97
2023-08-18T22:51:21.936Z,20.94
2023-08-18T22:53:55.379Z,20.94
2023-08-18T22:56:28.574Z,20.95
2023-08-18T22:59:03.540Z,20.93
2023-08-18T23:01:36.615Z,20.85
2023-08-18T23:04:09.437Z,20.78
2023-08-18T23:06:42.377Z,20.69
2023-08-18T23:09:15.256Z,20.66
2023-08-18T23:11:48.418Z,20.66
2023-08-18T23:14:19.459Z,20.64
2023-08-18T23:16:53.022Z,20.64
2023-08-18T23:19:25.796Z,20.70
2023-08-18T23:21:57.103Z,20.64
2023-08-18T23:24:29.839Z,20.51
2023-08-18T23:27:02.498Z,20.53
2023-08-18T23:29:35.464Z,20.56
2023-08-18T23:32:06.628Z,20.58
2023-08-18T23:34:39.540Z,20.56
2023-08-18T23:37:12.623Z,20.62
2023-08-18T23:39:45.981Z,20.64
2023-08-18T23:42:19.148Z,20.62
2023-08-18T23:44:50.319Z,20.59
2023-08-18T23:47:23.245Z,20.54
2023-08-18T23:49:56.019Z,20.56
2023-08-18T23:52:29.042Z,20.53
2023-08-18T23:55:01.982Z,20.52
2023-08-18T23:57:34.983Z,20.44
